sensor_id;sensor_type;location;lat;lon;timestamp;temperature;humidity
41437;DHT22;27178;49.460;10.850;2023-06-24T00:00:03;22.40;62.40
41437;DHT22;27178;49.460;10.850;2023-06-24T00:02:35;22.40;62.40
41437;DHT22;27178;49.460;10.850;2023-06-24T00:05:04;22.40;62.20
41437;DHT22;27178;49.460;10.850;2023-06-24T00:07:37;22.40;62.20
41437;DHT22;27178;49.460;10.850;2023-06-24T00:10:13;22.40;62.20
41437;DHT22;27178;49.460;10.850;2023-06-24T00:12:58;22.40;62.20
41437;DHT22;27178;49.460;10.850;2023-06-24T00:15:28;22.30;62.30
41437;DHT22;27178;49.460;10.850;2023-06-24T00:17:56;22.30;62.30
41437;DHT22;27178;49.460;10.850;2023-06-24T00:20:33;22.30;62.20
41437;DHT22;27178;49.460;10.850;2023-06-24T00:23:03;22.30;62.10
41437;DHT22;27178;49.460;10.850;2023-06-24T00:25:31;22.30;62.20
41437;DHT22;27178;49.460;10.850;2023-06-24T00:27:59;22.20;62.10
41437;DHT22;27178;49.460;10.850;2023-06-24T00:30:28;22.20;62.20
41437;DHT22;27178;49.460;10.850;2023-06-24T00:32:56;22.10;62.20
41437;DHT22;27178;49.460;10.850;2023-06-24T00:35:24;22.10;62.30
41437;DHT22;27178;49.460;10.850;2023-06-24T00:37:52;22.10;62.30
41437;DHT22;27178;49.460;10.850;2023-06-24T00:40:27;22.10;62.30
41437;DHT22;27178;49.460;10.850;2023-06-24T00:42:55;22.00;62.30
41437;DHT22;27178;49.460;10.850;2023-06-24T00:45:24;22.00;62.30
41437;DHT22;27178;49.460;10.850;2023-06-24T00:47:54;22.00;62.40
41437;DHT22;27178;49.460;10.850;2023-06-24T00:50:23;21.90;62.30
41437;DHT22;27178;49.460;10.850;2023-06-24T00:52:51;21.90;62.40
41437;DHT22;27178;49.460;10.850;2023-06-24T00:55:19;21.90;62.40
41437;DHT22;27178;49.460;10.850;2023-06-24T00:57:51;21.80;62.50
41437;DHT22;27178;49.460;10.850;2023-06-24T01:00:23;21.80;62.60
41437;DHT22;27178;49.460;10.850;2023-06-24T01:02:51;21.80;62.70
41437;DHT22;27178;49.460;10.850;2023-06-24T01:05:20;21.70;62.60
41437;DHT22;27178;49.460;10.850;2023-06-24T01:07:51;21.70;62.60
41437;DHT22;27178;49.460;10.850;2023-06-24T01:10:24;21.70;62.80
41437;DHT22;27178;49.460;10.850;2023-06-24T01:12:54;21.60;62.80
41437;DHT22;27178;49.460;10.850;2023-06-24T01:15:23;21.60;63.00
41437;DHT22;27178;49.460;10.850;2023-06-24T01:17:59;21.60;63.10
41437;DHT22;27178;49.460;10.850;2023-06-24T01:20:33;21.60;63.20
41437;DHT22;27178;49.460;10.850;2023-06-24T01:23:30;21.50;63.20
41437;DHT22;27178;49.460;10.850;2023-06-24T01:29:38;21.50;63.40
41437;DHT22;27178;49.460;10.850;2023-06-24T01:32:17;21.40;63.50
41437;DHT22;27178;49.460;10.850;2023-06-24T01:34:52;21.40;63.40
41437;DHT22;27178;49.460;10.850;2023-06-24T01:37:26;21.40;63.60
41437;DHT22;27178;49.460;10.850;2023-06-24T01:40:00;21.30;63.60
41437;DHT22;27178;49.460;10.850;2023-06-24T01:42:35;21.30;63.80
41437;DHT22;27178;49.460;10.850;2023-06-24T01:45:07;21.30;63.90
41437;DHT22;27178;49.460;10.850;2023-06-24T01:47:40;21.30;63.90
41437;DHT22;27178;49.460;10.850;2023-06-24T01:50:11;21.20;64.00
41437;DHT22;27178;49.460;10.850;2023-06-24T01:52:43;21.20;64.10
41437;DHT22;27178;49.460;10.850;2023-06-24T01:55:15;21.20;64.30
41437;DHT22;27178;49.460;10.850;2023-06-24T01:57:45;21.20;64.30
41437;DHT22;27178;49.460;10.850;2023-06-24T02:00:15;21.20;64.20
41437;DHT22;27178;49.460;10.850;2023-06-24T02:02:47;21.20;64.30
41437;DHT22;27178;49.460;10.850;2023-06-24T02:05:17;21.20;64.30
41437;DHT22;27178;49.460;10.850;2023-06-24T02:07:49;21.20;64.30
41437;DHT22;27178;49.460;10.850;2023-06-24T02:10:19;21.20;64.50
41437;DHT22;27178;49.460;10.850;2023-06-24T02:12:49;21.10;64.50
41437;DHT22;27178;49.460;10.850;2023-06-24T02:15:19;21.10;64.60
41437;DHT22;27178;49.460;10.850;2023-06-24T02:17:51;21.10;64.70
41437;DHT22;27178;49.460;10.850;2023-06-24T02:20:23;21.10;64.80
41437;DHT22;27178;49.460;10.850;2023-06-24T02:22:54;21.10;64.70
41437;DHT22;27178;49.460;10.850;2023-06-24T02:25:24;21.10;64.70
41437;DHT22;27178;49.460;10.850;2023-06-24T02:27:53;21.10;64.70
41437;DHT22;27178;49.460;10.850;2023-06-24T02:30:23;21.10;64.70
41437;DHT22;27178;49.460;10.850;2023-06-24T02:32:54;21.10;64.70
41437;DHT22;27178;49.460;10.850;2023-06-24T02:35:24;21.10;64.70
41437;DHT22;27178;49.460;10.850;2023-06-24T02:37:52;21.10;64.70
41437;DHT22;27178;49.460;10.850;2023-06-24T02:40:21;21.00;64.70
41437;DHT22;27178;49.460;10.850;2023-06-24T02:42:49;21.00;64.70
41437;DHT22;27178;49.460;10.850;2023-06-24T02:45:18;21.00;64.80
41437;DHT22;27178;49.460;10.850;2023-06-24T02:47:48;20.90;65.10
41437;DHT22;27178;49.460;10.850;2023-06-24T02:50:19;20.90;65.10
41437;DHT22;27178;49.460;10.850;2023-06-24T02:52:48;20.90;65.30
41437;DHT22;27178;49.460;10.850;2023-06-24T02:55:17;20.80;66.20
41437;DHT22;27178;49.460;10.850;2023-06-24T02:57:46;20.80;65.40
41437;DHT22;27178;49.460;10.850;2023-06-24T03:00:16;20.80;65.50
41437;DHT22;27178;49.460;10.850;2023-06-24T03:02:46;20.70;65.60
41437;DHT22;27178;49.460;10.850;2023-06-24T03:05:15;20.70;65.50
41437;DHT22;27178;49.460;10.850;2023-06-24T03:07:47;20.70;65.60
41437;DHT22;27178;49.460;10.850;2023-06-24T03:10:16;20.70;65.70
41437;DHT22;27178;49.460;10.850;2023-06-24T03:12:44;20.70;65.50
41437;DHT22;27178;49.460;10.850;2023-06-24T03:15:14;20.70;65.50
41437;DHT22;27178;49.460;10.850;2023-06-24T03:17:43;20.60;65.40
41437;DHT22;27178;49.460;10.850;2023-06-24T03:20:11;20.60;65.50
41437;DHT22;27178;49.460;10.850;2023-06-24T03:22:41;20.50;65.60
41437;DHT22;27178;49.460;10.850;2023-06-24T03:25:11;20.50;65.80
41437;DHT22;27178;49.460;10.850;2023-06-24T03:27:40;20.40;65.90
41437;DHT22;27178;49.460;10.850;2023-06-24T03:30:10;20.40;66.10
41437;DHT22;27178;49.460;10.850;2023-06-24T03:32:41;20.30;66.30
41437;DHT22;27178;49.460;10.850;2023-06-24T03:35:14;20.30;66.40
41437;DHT22;27178;49.460;10.850;2023-06-24T03:37:43;20.30;66.60
41437;DHT22;27178;49.460;10.850;2023-06-24T03:40:14;20.30;66.60
41437;DHT22;27178;49.460;10.850;2023-06-24T03:42:42;20.20;66.70
41437;DHT22;27178;49.460;10.850;2023-06-24T03:45:11;20.20;66.80
41437;DHT22;27178;49.460;10.850;2023-06-24T03:47:40;20.20;66.80
41437;DHT22;27178;49.460;10.850;2023-06-24T03:50:10;20.20;67.00
41437;DHT22;27178;49.460;10.850;2023-06-24T03:52:39;20.20;67.00
41437;DHT22;27178;49.460;10.850;2023-06-24T03:55:07;20.20;67.00
41437;DHT22;27178;49.460;10.850;2023-06-24T03:57:37;20.20;67.20
41437;DHT22;27178;49.460;10.850;2023-06-24T04:00:07;20.20;67.30
41437;DHT22;27178;49.460;10.850;2023-06-24T04:02:42;20.20;67.30
41437;DHT22;27178;49.460;10.850;2023-06-24T04:05:12;20.20;67.40
41437;DHT22;27178;49.460;10.850;2023-06-24T04:07:40;20.20;67.40
41437;DHT22;27178;49.460;10.850;2023-06-24T04:10:14;20.20;67.00
41437;DHT22;27178;49.460;10.850;2023-06-24T04:12:44;20.20;67.00
41437;DHT22;27178;49.460;10.850;2023-06-24T04:15:12;20.20;67.10
41437;DHT22;27178;49.460;10.850;2023-06-24T04:17:40;20.10;67.20
41437;DHT22;27178;49.460;10.850;2023-06-24T04:20:10;20.10;67.20
41437;DHT22;27178;49.460;10.850;2023-06-24T04:22:41;20.10;67.50
41437;DHT22;27178;49.460;10.850;2023-06-24T04:25:10;20.10;67.50
41437;DHT22;27178;49.460;10.850;2023-06-24T04:27:38;20.10;67.60
41437;DHT22;27178;49.460;10.850;2023-06-24T04:30:09;20.10;67.70
41437;DHT22;27178;49.460;10.850;2023-06-24T04:32:37;20.10;67.90
41437;DHT22;27178;49.460;10.850;2023-06-24T04:35:06;20.10;67.70
41437;DHT22;27178;49.460;10.850;2023-06-24T04:37:34;20.10;67.80
41437;DHT22;27178;49.460;10.850;2023-06-24T04:40:04;20.20;67.90
41437;DHT22;27178;49.460;10.850;2023-06-24T04:42:32;20.20;67.00
41437;DHT22;27178;49.460;10.850;2023-06-24T04:45:01;20.10;67.90
41437;DHT22;27178;49.460;10.850;2023-06-24T04:47:33;20.20;67.90
41437;DHT22;27178;49.460;10.850;2023-06-24T04:50:02;20.20;67.90
41437;DHT22;27178;49.460;10.850;2023-06-24T04:52:30;20.20;67.90
41437;DHT22;27178;49.460;10.850;2023-06-24T04:54:58;20.10;67.80
41437;DHT22;27178;49.460;10.850;2023-06-24T04:57:28;20.10;67.90
41437;DHT22;27178;49.460;10.850;2023-06-24T04:59:57;20.10;68.20
41437;DHT22;27178;49.460;10.850;2023-06-24T05:02:27;20.20;68.50
41437;DHT22;27178;49.460;10.850;2023-06-24T05:04:57;20.20;68.50
41437;DHT22;27178;49.460;10.850;2023-06-24T05:07:25;20.20;68.50
41437;DHT22;27178;49.460;10.850;2023-06-24T05:09:54;20.30;68.60
41437;DHT22;27178;49.460;10.850;2023-06-24T05:12:25;20.30;68.70
41437;DHT22;27178;49.460;10.850;2023-06-24T05:14:55;20.30;68.60
41437;DHT22;27178;49.460;10.850;2023-06-24T05:17:23;20.40;68.80
41437;DHT22;27178;49.460;10.850;2023-06-24T05:19:51;20.30;68.90
41437;DHT22;27178;49.460;10.850;2023-06-24T05:22:21;20.30;68.90
41437;DHT22;27178;49.460;10.850;2023-06-24T05:24:49;20.30;69.00
41437;DHT22;27178;49.460;10.850;2023-06-24T05:27:17;20.40;69.00
41437;DHT22;27178;49.460;10.850;2023-06-24T05:29:46;20.40;69.00
41437;DHT22;27178;49.460;10.850;2023-06-24T05:32:14;20.40;69.10
41437;DHT22;27178;49.460;10.850;2023-06-24T05:34:44;20.40;69.10
41437;DHT22;27178;49.460;10.850;2023-06-24T05:37:12;20.40;69.20
41437;DHT22;27178;49.460;10.850;2023-06-24T05:39:42;20.50;69.30
41437;DHT22;27178;49.460;10.850;2023-06-24T05:42:11;20.50;69.60
41437;DHT22;27178;49.460;10.850;2023-06-24T05:44:39;20.50;69.60
41437;DHT22;27178;49.460;10.850;2023-06-24T05:47:07;20.60;69.70
41437;DHT22;27178;49.460;10.850;2023-06-24T05:49:36;20.70;69.80
41437;DHT22;27178;49.460;10.850;2023-06-24T05:52:05;20.70;69.80
41437;DHT22;27178;49.460;10.850;2023-06-24T05:54:33;20.80;70.00
41437;DHT22;27178;49.460;10.850;2023-06-24T05:57:04;20.80;70.00
41437;DHT22;27178;49.460;10.850;2023-06-24T05:59:33;20.90;70.10
41437;DHT22;27178;49.460;10.850;2023-06-24T06:02:01;21.00;70.00
41437;DHT22;27178;49.460;10.850;2023-06-24T06:04:30;21.00;69.90
41437;DHT22;27178;49.460;10.850;2023-06-24T06:06:58;21.10;69.90
41437;DHT22;27178;49.460;10.850;2023-06-24T06:09:28;21.10;69.80
41437;DHT22;27178;49.460;10.850;2023-06-24T06:11:57;21.20;69.90
41437;DHT22;27178;49.460;10.850;2023-06-24T06:14:27;21.20;70.00
41437;DHT22;27178;49.460;10.850;2023-06-24T06:16:56;21.30;69.80
41437;DHT22;27178;49.460;10.850;2023-06-24T06:19:24;21.30;69.50
41437;DHT22;27178;49.460;10.850;2023-06-24T06:21:53;21.40;69.80
41437;DHT22;27178;49.460;10.850;2023-06-24T06:24:21;21.40;69.70
41437;DHT22;27178;49.460;10.850;2023-06-24T06:26:49;21.50;69.50
41437;DHT22;27178;49.460;10.850;2023-06-24T06:29:18;21.50;69.30
41437;DHT22;27178;49.460;10.850;2023-06-24T06:31:48;21.60;69.20
41437;DHT22;27178;49.460;10.850;2023-06-24T06:34:16;21.60;69.00
41437;DHT22;27178;49.460;10.850;2023-06-24T06:36:44;21.60;68.50
41437;DHT22;27178;49.460;10.850;2023-06-24T06:39:13;21.70;68.40
41437;DHT22;27178;49.460;10.850;2023-06-24T06:41:41;21.70;68.40
41437;DHT22;27178;49.460;10.850;2023-06-24T06:44:10;21.80;68.20
41437;DHT22;27178;49.460;10.850;2023-06-24T06:46:38;21.80;68.20
41437;DHT22;27178;49.460;10.850;2023-06-24T06:49:08;21.90;68.00
41437;DHT22;27178;49.460;10.850;2023-06-24T06:51:36;21.90;67.80
41437;DHT22;27178;49.460;10.850;2023-06-24T06:54:05;21.90;67.70
41437;DHT22;27178;49.460;10.850;2023-06-24T06:56:33;21.90;67.60
41437;DHT22;27178;49.460;10.850;2023-06-24T06:59:01;22.00;67.60
41437;DHT22;27178;49.460;10.850;2023-06-24T07:01:29;22.00;67.40
41437;DHT22;27178;49.460;10.850;2023-06-24T07:03:58;22.00;67.30
41437;DHT22;27178;49.460;10.850;2023-06-24T07:06:28;22.10;67.30
41437;DHT22;27178;49.460;10.850;2023-06-24T07:08:59;22.10;67.60
41437;DHT22;27178;49.460;10.850;2023-06-24T07:11:28;22.10;66.90
41437;DHT22;27178;49.460;10.850;2023-06-24T07:13:56;22.10;66.90
41437;DHT22;27178;49.460;10.850;2023-06-24T07:16:25;22.10;66.90
41437;DHT22;27178;49.460;10.850;2023-06-24T07:18:53;22.20;67.10
41437;DHT22;27178;49.460;10.850;2023-06-24T07:21:21;22.20;67.80
41437;DHT22;27178;49.460;10.850;2023-06-24T07:23:51;22.20;66.80
41437;DHT22;27178;49.460;10.850;2023-06-24T07:26:20;22.20;66.70
41437;DHT22;27178;49.460;10.850;2023-06-24T07:28:50;22.30;66.80
41437;DHT22;27178;49.460;10.850;2023-06-24T07:31:34;22.30;66.70
41437;DHT22;27178;49.460;10.850;2023-06-24T07:34:03;22.30;66.70
41437;DHT22;27178;49.460;10.850;2023-06-24T07:36:32;22.40;66.50
41437;DHT22;27178;49.460;10.850;2023-06-24T07:39:02;22.30;66.30
41437;DHT22;27178;49.460;10.850;2023-06-24T07:41:32;22.40;66.30
41437;DHT22;27178;49.460;10.850;2023-06-24T07:44:01;22.40;66.30
41437;DHT22;27178;49.460;10.850;2023-06-24T07:46:29;22.40;66.30
41437;DHT22;27178;49.460;10.850;2023-06-24T07:48:58;22.40;66.30
41437;DHT22;27178;49.460;10.850;2023-06-24T07:51:27;22.50;66.20
41437;DHT22;27178;49.460;10.850;2023-06-24T07:53:56;22.40;66.40
41437;DHT22;27178;49.460;10.850;2023-06-24T07:56:26;22.40;66.20
41437;DHT22;27178;49.460;10.850;2023-06-24T07:58:55;22.50;65.30
41437;DHT22;27178;49.460;10.850;2023-06-24T08:01:23;22.50;64.50
41437;DHT22;27178;49.460;10.850;2023-06-24T08:03:52;22.60;63.40
41437;DHT22;27178;49.460;10.850;2023-06-24T08:06:20;22.60;63.50
41437;DHT22;27178;49.460;10.850;2023-06-24T08:08:49;22.70;63.00
41437;DHT22;27178;49.460;10.850;2023-06-24T08:11:17;23.80;63.50
41437;DHT22;27178;49.460;10.850;2023-06-24T08:13:47;22.80;62.80
41437;DHT22;27178;49.460;10.850;2023-06-24T08:16:16;22.70;61.90
41437;DHT22;27178;49.460;10.850;2023-06-24T08:18:46;22.80;62.00
41437;DHT22;27178;49.460;10.850;2023-06-24T08:21:16;22.50;61.50
41437;DHT22;27178;49.460;10.850;2023-06-24T08:23:45;22.60;62.50
41437;DHT22;27178;49.460;10.850;2023-06-24T08:26:14;22.80;62.30
41437;DHT22;27178;49.460;10.850;2023-06-24T08:28:45;22.80;61.90
41437;DHT22;27178;49.460;10.850;2023-06-24T08:31:14;22.90;61.90
41437;DHT22;27178;49.460;10.850;2023-06-24T08:33:44;22.90;62.30
41437;DHT22;27178;49.460;10.850;2023-06-24T08:36:13;23.00;61.60
41437;DHT22;27178;49.460;10.850;2023-06-24T08:38:41;23.10;61.10
41437;DHT22;27178;49.460;10.850;2023-06-24T08:41:09;23.10;60.90
41437;DHT22;27178;49.460;10.850;2023-06-24T08:43:38;23.10;60.50
41437;DHT22;27178;49.460;10.850;2023-06-24T08:46:07;23.20;60.40
41437;DHT22;27178;49.460;10.850;2023-06-24T08:48:39;23.20;60.30
41437;DHT22;27178;49.460;10.850;2023-06-24T08:51:08;23.20;60.20
41437;DHT22;27178;49.460;10.850;2023-06-24T08:53:39;23.30;60.10
41437;DHT22;27178;49.460;10.850;2023-06-24T08:56:09;23.30;60.00
41437;DHT22;27178;49.460;10.850;2023-06-24T08:58:38;23.30;60.00
41437;DHT22;27178;49.460;10.850;2023-06-24T09:01:07;23.40;59.80
41437;DHT22;27178;49.460;10.850;2023-06-24T09:03:37;23.40;59.50
41437;DHT22;27178;49.460;10.850;2023-06-24T09:06:06;23.40;59.20
41437;DHT22;27178;49.460;10.850;2023-06-24T09:08:34;23.40;59.10
41437;DHT22;27178;49.460;10.850;2023-06-24T09:11:08;23.50;58.90
41437;DHT22;27178;49.460;10.850;2023-06-24T09:13:37;23.50;58.70
41437;DHT22;27178;49.460;10.850;2023-06-24T09:16:14;23.60;58.90
41437;DHT22;27178;49.460;10.850;2023-06-24T09:18:49;23.60;58.30
41437;DHT22;27178;49.460;10.850;2023-06-24T09:21:28;23.60;58.10
41437;DHT22;27178;49.460;10.850;2023-06-24T09:23:59;23.70;58.10
41437;DHT22;27178;49.460;10.850;2023-06-24T09:26:28;23.70;57.90
41437;DHT22;27178;49.460;10.850;2023-06-24T09:28:58;23.80;57.80
41437;DHT22;27178;49.460;10.850;2023-06-24T09:31:26;23.80;57.40
41437;DHT22;27178;49.460;10.850;2023-06-24T09:33:58;23.80;57.40
41437;DHT22;27178;49.460;10.850;2023-06-24T09:36:27;23.80;57.10
41437;DHT22;27178;49.460;10.850;2023-06-24T09:39:05;23.80;57.20
41437;DHT22;27178;49.460;10.850;2023-06-24T09:41:49;23.80;57.00
41437;DHT22;27178;49.460;10.850;2023-06-24T09:44:17;23.90;57.30
41437;DHT22;27178;49.460;10.850;2023-06-24T09:46:46;23.90;57.40
41437;DHT22;27178;49.460;10.850;2023-06-24T09:49:17;24.00;57.40
41437;DHT22;27178;49.460;10.850;2023-06-24T09:51:47;24.00;57.20
41437;DHT22;27178;49.460;10.850;2023-06-24T09:54:16;24.00;56.90
41437;DHT22;27178;49.460;10.850;2023-06-24T09:56:48;24.10;57.00
41437;DHT22;27178;49.460;10.850;2023-06-24T09:59:17;24.20;57.10
41437;DHT22;27178;49.460;10.850;2023-06-24T10:01:47;24.20;56.80
41437;DHT22;27178;49.460;10.850;2023-06-24T10:04:20;24.20;56.80
41437;DHT22;27178;49.460;10.850;2023-06-24T10:06:50;24.20;56.40
41437;DHT22;27178;49.460;10.850;2023-06-24T10:09:18;24.30;56.50
41437;DHT22;27178;49.460;10.850;2023-06-24T10:11:47;24.30;56.50
41437;DHT22;27178;49.460;10.850;2023-06-24T10:14:15;24.30;56.30
41437;DHT22;27178;49.460;10.850;2023-06-24T10:16:45;24.40;56.20
41437;DHT22;27178;49.460;10.850;2023-06-24T10:19:20;24.50;56.00
41437;DHT22;27178;49.460;10.850;2023-06-24T10:21:51;24.50;55.80
41437;DHT22;27178;49.460;10.850;2023-06-24T10:24:32;24.60;55.90
41437;DHT22;27178;49.460;10.850;2023-06-24T10:27:02;24.60;55.50
41437;DHT22;27178;49.460;10.850;2023-06-24T10:29:34;24.60;55.40
41437;DHT22;27178;49.460;10.850;2023-06-24T10:32:05;24.60;55.20
41437;DHT22;27178;49.460;10.850;2023-06-24T10:34:40;24.60;55.10
41437;DHT22;27178;49.460;10.850;2023-06-24T10:37:11;24.70;54.90
41437;DHT22;27178;49.460;10.850;2023-06-24T10:39:46;24.70;55.10
41437;DHT22;27178;49.460;10.850;2023-06-24T10:42:32;24.80;54.80
41437;DHT22;27178;49.460;10.850;2023-06-24T10:45:13;24.90;54.60
41437;DHT22;27178;49.460;10.850;2023-06-24T10:47:43;24.90;55.50
41437;DHT22;27178;49.460;10.850;2023-06-24T10:50:14;25.00;55.20
41437;DHT22;27178;49.460;10.850;2023-06-24T10:52:44;25.10;55.50
41437;DHT22;27178;49.460;10.850;2023-06-24T10:55:14;25.20;55.40
41437;DHT22;27178;49.460;10.850;2023-06-24T10:57:43;25.30;55.10
41437;DHT22;27178;49.460;10.850;2023-06-24T11:00:13;25.40;54.90
41437;DHT22;27178;49.460;10.850;2023-06-24T11:02:45;25.50;54.50
41437;DHT22;27178;49.460;10.850;2023-06-24T11:05:15;25.60;54.40
41437;DHT22;27178;49.460;10.850;2023-06-24T11:07:43;25.70;54.10
41437;DHT22;27178;49.460;10.850;2023-06-24T11:10:15;25.80;54.20
41437;DHT22;27178;49.460;10.850;2023-06-24T11:12:43;26.00;54.00
41437;DHT22;27178;49.460;10.850;2023-06-24T11:15:14;26.10;54.00
41437;DHT22;27178;49.460;10.850;2023-06-24T11:17:42;26.10;53.80
41437;DHT22;27178;49.460;10.850;2023-06-24T11:20:11;26.20;53.60
41437;DHT22;27178;49.460;10.850;2023-06-24T11:22:43;26.30;53.50
41437;DHT22;27178;49.460;10.850;2023-06-24T11:25:15;26.30;53.00
41437;DHT22;27178;49.460;10.850;2023-06-24T11:27:47;26.40;53.00
41437;DHT22;27178;49.460;10.850;2023-06-24T11:30:18;26.40;52.90
41437;DHT22;27178;49.460;10.850;2023-06-24T11:32:47;26.50;52.60
41437;DHT22;27178;49.460;10.850;2023-06-24T11:35:17;26.50;52.70
41437;DHT22;27178;49.460;10.850;2023-06-24T11:37:50;26.50;52.80
41437;DHT22;27178;49.460;10.850;2023-06-24T11:40:19;26.50;52.40
41437;DHT22;27178;49.460;10.850;2023-06-24T11:42:50;26.50;52.70
41437;DHT22;27178;49.460;10.850;2023-06-24T11:45:24;26.60;52.70
41437;DHT22;27178;49.460;10.850;2023-06-24T11:48:02;26.70;52.20
41437;DHT22;27178;49.460;10.850;2023-06-24T11:50:32;26.80;52.10
41437;DHT22;27178;49.460;10.850;2023-06-24T11:53:03;26.80;52.20
41437;DHT22;27178;49.460;10.850;2023-06-24T11:55:32;26.90;52.40
41437;DHT22;27178;49.460;10.850;2023-06-24T11:58:06;27.00;51.90
41437;DHT22;27178;49.460;10.850;2023-06-24T12:00:38;27.00;51.40
41437;DHT22;27178;49.460;10.850;2023-06-24T12:03:09;27.00;51.60
41437;DHT22;27178;49.460;10.850;2023-06-24T12:05:39;27.10;51.50
41437;DHT22;27178;49.460;10.850;2023-06-24T12:08:14;27.10;51.40
41437;DHT22;27178;49.460;10.850;2023-06-24T12:10:44;27.20;51.30
41437;DHT22;27178;49.460;10.850;2023-06-24T12:13:13;27.20;51.10
41437;DHT22;27178;49.460;10.850;2023-06-24T12:15:44;27.30;50.90
41437;DHT22;27178;49.460;10.850;2023-06-24T12:18:13;27.40;51.00
41437;DHT22;27178;49.460;10.850;2023-06-24T12:20:41;27.50;51.10
41437;DHT22;27178;49.460;10.850;2023-06-24T12:23:11;27.60;51.10
41437;DHT22;27178;49.460;10.850;2023-06-24T12:25:41;27.60;51.10
41437;DHT22;27178;49.460;10.850;2023-06-24T12:28:10;27.70;51.00
41437;DHT22;27178;49.460;10.850;2023-06-24T12:30:38;27.80;51.10
41437;DHT22;27178;49.460;10.850;2023-06-24T12:33:07;28.00;51.20
41437;DHT22;27178;49.460;10.850;2023-06-24T12:35:36;28.10;51.00
41437;DHT22;27178;49.460;10.850;2023-06-24T12:38:04;28.30;50.70
41437;DHT22;27178;49.460;10.850;2023-06-24T12:40:33;28.40;50.20
41437;DHT22;27178;49.460;10.850;2023-06-24T12:43:03;28.50;50.00
41437;DHT22;27178;49.460;10.850;2023-06-24T12:45:35;28.60;49.60
41437;DHT22;27178;49.460;10.850;2023-06-24T12:48:04;28.80;49.50
41437;DHT22;27178;49.460;10.850;2023-06-24T12:50:33;28.90;49.70
41437;DHT22;27178;49.460;10.850;2023-06-24T12:53:02;29.00;49.10
41437;DHT22;27178;49.460;10.850;2023-06-24T12:55:31;29.00;48.60
41437;DHT22;27178;49.460;10.850;2023-06-24T12:57:59;29.00;48.10
41437;DHT22;27178;49.460;10.850;2023-06-24T13:00:28;29.00;47.90
41437;DHT22;27178;49.460;10.850;2023-06-24T13:02:57;28.90;47.70
41437;DHT22;27178;49.460;10.850;2023-06-24T13:05:26;28.80;47.70
41437;DHT22;27178;49.460;10.850;2023-06-24T13:07:55;28.80;47.90
41437;DHT22;27178;49.460;10.850;2023-06-24T13:10:24;28.90;48.70
41437;DHT22;27178;49.460;10.850;2023-06-24T13:12:52;29.00;48.10
41437;DHT22;27178;49.460;10.850;2023-06-24T13:15:20;29.10;48.10
41437;DHT22;27178;49.460;10.850;2023-06-24T13:17:50;29.20;47.90
41437;DHT22;27178;49.460;10.850;2023-06-24T13:20:18;29.30;47.90
41437;DHT22;27178;49.460;10.850;2023-06-24T13:22:47;29.20;48.00
41437;DHT22;27178;49.460;10.850;2023-06-24T13:25:15;29.20;47.90
41437;DHT22;27178;49.460;10.850;2023-06-24T13:27:44;29.00;47.70
41437;DHT22;27178;49.460;10.850;2023-06-24T13:30:14;28.90;47.70
41437;DHT22;27178;49.460;10.850;2023-06-24T13:32:43;28.80;48.00
41437;DHT22;27178;49.460;10.850;2023-06-24T13:35:14;28.80;48.30
41437;DHT22;27178;49.460;10.850;2023-06-24T13:37:42;28.80;48.50
41437;DHT22;27178;49.460;10.850;2023-06-24T13:40:11;28.80;48.40
41437;DHT22;27178;49.460;10.850;2023-06-24T13:42:39;28.90;48.30
41437;DHT22;27178;49.460;10.850;2023-06-24T13:45:08;29.00;48.10
41437;DHT22;27178;49.460;10.850;2023-06-24T13:47:37;29.10;47.90
41437;DHT22;27178;49.460;10.850;2023-06-24T13:50:06;29.20;47.70
41437;DHT22;27178;49.460;10.850;2023-06-24T13:52:37;29.30;47.60
41437;DHT22;27178;49.460;10.850;2023-06-24T13:55:05;29.50;47.40
41437;DHT22;27178;49.460;10.850;2023-06-24T13:57:34;29.60;47.20
41437;DHT22;27178;49.460;10.850;2023-06-24T14:00:03;29.70;47.00
41437;DHT22;27178;49.460;10.850;2023-06-24T14:02:32;29.80;46.70
41437;DHT22;27178;49.460;10.850;2023-06-24T14:05:02;30.00;46.50
41437;DHT22;27178;49.460;10.850;2023-06-24T14:07:30;30.10;46.30
41437;DHT22;27178;49.460;10.850;2023-06-24T14:10:02;30.20;45.90
41437;DHT22;27178;49.460;10.850;2023-06-24T14:12:31;30.30;45.30
41437;DHT22;27178;49.460;10.850;2023-06-24T14:14:59;30.40;45.50
41437;DHT22;27178;49.460;10.850;2023-06-24T14:17:28;30.40;45.20
41437;DHT22;27178;49.460;10.850;2023-06-24T14:19:56;30.50;45.10
41437;DHT22;27178;49.460;10.850;2023-06-24T14:22:24;30.50;44.80
41437;DHT22;27178;49.460;10.850;2023-06-24T14:24:53;30.60;45.00
41437;DHT22;27178;49.460;10.850;2023-06-24T14:27:23;30.60;44.80
41437;DHT22;27178;49.460;10.850;2023-06-24T14:29:51;30.70;44.40
41437;DHT22;27178;49.460;10.850;2023-06-24T14:32:20;30.70;44.40
41437;DHT22;27178;49.460;10.850;2023-06-24T14:34:48;30.70;44.40
41437;DHT22;27178;49.460;10.850;2023-06-24T14:37:16;30.70;44.10
41437;DHT22;27178;49.460;10.850;2023-06-24T14:39:44;30.70;43.80
41437;DHT22;27178;49.460;10.850;2023-06-24T14:42:13;30.70;43.70
41437;DHT22;27178;49.460;10.850;2023-06-24T14:44:43;30.70;43.70
41437;DHT22;27178;49.460;10.850;2023-06-24T14:47:12;30.60;43.60
41437;DHT22;27178;49.460;10.850;2023-06-24T14:49:40;30.60;43.50
41437;DHT22;27178;49.460;10.850;2023-06-24T14:52:09;30.50;43.40
41437;DHT22;27178;49.460;10.850;2023-06-24T14:54:37;30.40;43.40
41437;DHT22;27178;49.460;10.850;2023-06-24T14:57:05;30.40;43.40
41437;DHT22;27178;49.460;10.850;2023-06-24T14:59:34;30.30;43.20
41437;DHT22;27178;49.460;10.850;2023-06-24T15:02:04;30.30;43.30
41437;DHT22;27178;49.460;10.850;2023-06-24T15:04:32;30.20;43.10
41437;DHT22;27178;49.460;10.850;2023-06-24T15:07:03;30.10;43.10
41437;DHT22;27178;49.460;10.850;2023-06-24T15:09:31;30.10;43.00
41437;DHT22;27178;49.460;10.850;2023-06-24T15:12:04;30.10;43.30
41437;DHT22;27178;49.460;10.850;2023-06-24T15:14:33;30.00;43.60
41437;DHT22;27178;49.460;10.850;2023-06-24T15:17:03;30.00;43.80
41437;DHT22;27178;49.460;10.850;2023-06-24T15:19:32;30.00;44.00
41437;DHT22;27178;49.460;10.850;2023-06-24T15:22:01;30.00;44.10
41437;DHT22;27178;49.460;10.850;2023-06-24T15:24:29;30.10;44.20
41437;DHT22;27178;49.460;10.850;2023-06-24T15:26:58;30.10;44.20
41437;DHT22;27178;49.460;10.850;2023-06-24T15:29:27;30.10;44.20
41437;DHT22;27178;49.460;10.850;2023-06-24T15:31:56;30.10;44.00
41437;DHT22;27178;49.460;10.850;2023-06-24T15:34:27;30.10;43.70